Aérodrome :
LOGIN :

S'inscrire | Disclaimer

   EN    FR    IT 

 










Légende :    VFR   VFR Marginal   IFR   IFR Intensif   IFR Très Intensif
Visi : 
Plafond : 
>= 8 km
>= 3000ft
5 à 8 km
1000 à 3000 ft
1500m à 5 km
500 à 1000 ft
800 à 1500m
200 à 500 ft
< 800m
< 200 ft
Symboles :   Orages  Brouillard  Fortes neiges  Fortes précipitations  Vent > 20 kt
SIGMETs :   Divers  Orages  Givrage  Turbulence  Onde Orograph.  Cendres Volcan.






- Altitude de l'aérodrome : 325 ft
- Code IATA : POX


LFPT - Pontoise

DERNIER METAR :
  • 141100Z AUTO 25007KT 220V280 9999 BKN013/// OVC023/// 17/14 Q1017

METARs EXPIRÉS :
  • 141030Z AUTO 26007KT 210V290 9999 BKN012/// BKN024/// OVC038/// 18/15 Q1017
  • 141000Z AUTO 26009KT 230V300 9999 OVC012/// 17/14 Q1018
  • 140930Z AUTO 26007KT 230V290 9999 OVC015/// 17/13 Q1018
  • 140900Z AUTO 26006KT 220V290 9999 -RA BKN019/// OVC026/// 16/13 Q1018
  • 140830Z AUTO 29008KT 260V320 9999 OVC024/// 18/10 Q1018

TAF N/A
ATIS : +33 1 30 30 52 08



MET'MAP, la Météo Aéronautique d'un coup d'oeil ! - Copyright ORBIFLY Décembre 2007 - Disclaimer

ORBIFLY MET'MAP TEAM :

Programmation & Développement : Alexandra Zaïnal
Sur une idée originale de : Baudouin d'Aumeries
Assistance à la programmation : Marc-Olivier Méhu
Soutien technique & logistique : Manuel Goepfert

Contact : metmap@orbifly.com




SOURCES & CREDITS :

   NOAA